createdAt,value
2023-05-16T00:04:11.134Z,7.7
2023-05-16T00:09:18.897Z,7.7
2023-05-16T00:19:34.806Z,7.6
2023-05-16T00:24:42.772Z,7.6
2023-05-16T00:29:50.706Z,7.5
2023-05-16T00:34:56.881Z,7.5
2023-05-16T00:40:03.049Z,7.5
2023-05-16T00:45:11.006Z,7.5
2023-05-16T00:50:18.953Z,7.5
2023-05-16T00:55:25.161Z,7.5
2023-05-16T01:00:31.305Z,7.5
2023-05-16T01:05:39.272Z,7.4
2023-05-16T01:10:45.403Z,7.4
2023-05-16T01:15:51.620Z,7.4
2023-05-16T01:20:59.546Z,7.4
2023-05-16T01:26:05.722Z,7.4
2023-05-16T01:31:13.739Z,7.4
2023-05-16T01:41:28.008Z,7.4
2023-05-16T01:46:33.986Z,7.4
2023-05-16T01:51:41.910Z,7.4
2023-05-16T02:01:56.064Z,7.3
2023-05-16T02:07:02.188Z,7.3
2023-05-16T02:12:08.381Z,7.3
2023-05-16T02:17:16.314Z,7.3
2023-05-16T02:22:22.548Z,7.3
2023-05-16T02:27:30.428Z,7.3
2023-05-16T02:32:38.414Z,7.3
2023-05-16T02:37:46.372Z,7.2
2023-05-16T02:42:52.552Z,7.2
2023-05-16T02:48:00.466Z,7.2
2023-05-16T02:53:08.417Z,7.2
2023-05-16T02:58:16.417Z,7.2
2023-05-16T03:03:22.655Z,7.2
2023-05-16T03:08:30.506Z,7.2
2023-05-16T03:13:38.471Z,7.1
2023-05-16T03:18:44.686Z,7.1
2023-05-16T03:23:50.801Z,7.1
2023-05-16T03:28:58.770Z,7.1
2023-05-16T03:34:06.704Z,7.1
2023-05-16T03:39:14.635Z,7.1
2023-05-16T03:44:22.595Z,7.1
2023-05-16T03:49:30.539Z,7.1
2023-05-16T03:54:36.720Z,7.1
2023-05-16T03:59:42.872Z,7.1
2023-05-16T04:04:50.845Z,7.1
2023-05-16T04:09:57.020Z,7.1
2023-05-16T04:15:04.992Z,7.1
2023-05-16T04:20:12.955Z,7.1
2023-05-16T04:25:21.129Z,7.1
2023-05-16T04:30:28.858Z,7.1
2023-05-16T04:35:36.812Z,7.1
2023-05-16T04:40:44.809Z,7.1
2023-05-16T04:45:50.941Z,7.1
2023-05-16T04:50:57.078Z,7.1
2023-05-16T04:56:03.293Z,7.1
2023-05-16T05:01:11.243Z,7.1
2023-05-16T05:06:19.170Z,7.1
2023-05-16T05:11:25.364Z,7.1
2023-05-16T05:16:33.300Z,7.1
2023-05-16T05:31:53.608Z,7.1
2023-05-16T05:37:01.552Z,7.1
2023-05-16T05:42:07.741Z,7.1
2023-05-16T05:47:13.892Z,7.1
2023-05-16T05:52:20.047Z,7.1
2023-05-16T05:57:28.007Z,7.1
2023-05-16T06:02:34.272Z,7.1
2023-05-16T06:07:40.363Z,7.1
2023-05-16T06:12:48.323Z,6.9
2023-05-16T06:17:56.304Z,6.9
2023-05-16T06:23:02.440Z,6.9
2023-05-16T06:28:08.610Z,6.9
2023-05-16T06:33:16.558Z,6.9
2023-05-16T06:38:22.721Z,6.9
2023-05-16T06:43:28.913Z,6.9
2023-05-16T06:48:36.837Z,6.9
2023-05-16T06:53:43.042Z,6.9
2023-05-16T06:58:49.219Z,6.9
2023-05-16T07:03:56.610Z,6.9
2023-05-16T07:09:03.324Z,7
2023-05-16T07:14:09.503Z,7
2023-05-16T07:19:17.474Z,7
2023-05-16T07:24:25.394Z,7
2023-05-16T07:29:33.372Z,7
2023-05-16T07:34:39.526Z,7
2023-05-16T07:39:47.514Z,7
2023-05-16T07:44:55.417Z,7
2023-05-16T07:50:03.413Z,7
2023-05-16T07:55:11.339Z,7
2023-05-16T08:00:19.310Z,7
2023-05-16T08:05:27.488Z,7
2023-05-16T08:10:35.232Z,7
2023-05-16T08:15:43.223Z,7
2023-05-16T08:20:51.149Z,7
2023-05-16T08:31:07.075Z,7
2023-05-16T08:36:15.034Z,7
2023-05-16T08:41:22.935Z,7
2023-05-16T08:46:30.882Z,7
2023-05-16T08:51:38.843Z,7
2023-05-16T09:01:54.837Z,6.9
2023-05-16T09:07:00.931Z,6.9
2023-05-16T09:12:08.875Z,6.9
2023-05-16T09:17:20.611Z,6.9
2023-05-16T09:22:23.007Z,6.8
2023-05-16T09:27:29.174Z,6.8
2023-05-16T09:32:37.176Z,6.8
2023-05-16T09:37:43.305Z,6.7
2023-05-16T09:42:49.463Z,6.7
2023-05-16T09:47:57.496Z,6.7
2023-05-16T09:53:03.617Z,6.7
2023-05-16T09:58:11.539Z,6.7
2023-05-16T10:03:17.773Z,6.6
2023-05-16T10:08:23.872Z,6.6
2023-05-16T10:13:31.848Z,6.5
2023-05-16T10:18:40.032Z,6.5
2023-05-16T10:23:47.751Z,6.5
2023-05-16T10:28:53.963Z,6.4
2023-05-16T10:34:01.846Z,6.5
2023-05-16T10:39:09.830Z,6.4
2023-05-16T10:44:15.993Z,6.4
2023-05-16T10:49:23.961Z,6.4
2023-05-16T10:54:33.447Z,6.4
2023-05-16T10:59:38.049Z,6.4
2023-05-16T11:04:44.209Z,6.4
2023-05-16T11:09:52.188Z,6.6
2023-05-16T11:14:58.335Z,6.4
2023-05-16T11:20:06.316Z,6.4
2023-05-16T11:25:12.467Z,6.6
2023-05-16T11:30:18.627Z,6.6
2023-05-16T11:35:26.702Z,6.6
2023-05-16T11:40:34.530Z,6.6
2023-05-16T11:45:40.719Z,6.6
2023-05-16T11:50:46.879Z,6.6
2023-05-16T11:55:56.017Z,6.6
2023-05-16T12:01:02.783Z,6.6
2023-05-16T12:16:26.714Z,6.8
2023-05-16T12:21:32.807Z,6.8
2023-05-16T12:26:40.729Z,6.8
2023-05-16T12:31:48.968Z,6.8
2023-05-16T12:42:04.650Z,7
2023-05-16T12:47:13.320Z,7
2023-05-16T12:52:20.550Z,7
2023-05-16T12:57:28.483Z,7
2023-05-16T13:02:36.567Z,7
2023-05-16T13:07:44.407Z,7
2023-05-16T13:12:52.355Z,7
2023-05-16T13:17:58.553Z,7
2023-05-16T13:23:04.701Z,7
2023-05-16T13:28:12.647Z,7
2023-05-16T13:33:18.859Z,7
2023-05-16T13:38:26.781Z,7
2023-05-16T13:43:32.921Z,7.1
2023-05-16T13:48:40.858Z,7.1
2023-05-16T13:53:48.113Z,7.1
2023-05-16T13:59:03.869Z,7.1
2023-05-16T14:04:01.242Z,7.1
2023-05-16T14:09:09.099Z,7.3
2023-05-16T14:14:17.064Z,7.3
2023-05-16T14:19:23.243Z,7.3
2023-05-16T14:24:29.426Z,7.4
2023-05-16T14:29:38.363Z,7.4
2023-05-16T14:34:43.542Z,7.4
2023-05-16T14:39:51.477Z,7.4
2023-05-16T14:44:57.622Z,7.4
2023-05-16T14:50:05.624Z,7.4
2023-05-16T14:55:11.744Z,7.5
2023-05-16T15:00:19.707Z,7.5
2023-05-16T15:05:25.987Z,7.5
2023-05-16T15:10:33.845Z,7.7
2023-05-16T15:15:41.777Z,7.7
2023-05-16T15:20:47.956Z,7.7
2023-05-16T15:25:54.106Z,7.7
2023-05-16T15:31:00.294Z,7.8
2023-05-16T15:36:08.249Z,7.8
2023-05-16T15:46:22.456Z,7.9
2023-05-16T15:51:30.309Z,7.9
2023-05-16T15:56:38.251Z,7.9
2023-05-16T16:01:46.267Z,8.1
2023-05-16T16:06:54.154Z,8.2
2023-05-16T16:12:00.319Z,8.2
2023-05-16T16:17:08.264Z,8.3
2023-05-16T16:22:16.226Z,8.2
2023-05-16T16:27:24.176Z,8.4
2023-05-16T16:32:32.189Z,8.3
2023-05-16T16:37:41.669Z,8.3
2023-05-16T16:42:48.054Z,8.4
2023-05-16T16:47:56.078Z,8.3
2023-05-16T16:53:03.975Z,8.3
2023-05-16T16:58:11.969Z,8.3
2023-05-16T17:03:19.968Z,8.4
2023-05-16T17:08:27.839Z,8.4
2023-05-16T17:13:35.781Z,8.4
2023-05-16T17:18:43.791Z,8.5
2023-05-16T17:23:51.702Z,8.5
2023-05-16T17:28:59.630Z,8.5
2023-05-16T17:34:07.612Z,8.5
2023-05-16T17:39:15.552Z,8.6
2023-05-16T17:44:23.484Z,8.6
2023-05-16T17:49:31.493Z,8.6
2023-05-16T17:54:39.415Z,8.6
2023-05-16T17:59:47.353Z,8.6
2023-05-16T18:04:53.516Z,8.6
2023-05-16T18:09:59.679Z,8.6
2023-05-16T18:15:05.861Z,8.6
2023-05-16T18:20:13.889Z,8.6
2023-05-16T18:25:21.772Z,8.7
2023-05-16T18:30:29.700Z,8.7
2023-05-16T18:35:37.662Z,8.7
2023-05-16T18:40:45.617Z,8.7
2023-05-16T18:45:53.559Z,8.7
2023-05-16T18:56:05.897Z,8.7
2023-05-16T19:01:13.836Z,8.8
2023-05-16T19:06:20.024Z,8.8
2023-05-16T19:11:28.037Z,8.9
2023-05-16T19:16:34.149Z,8.9
2023-05-16T19:21:40.319Z,8.9
2023-05-16T19:26:48.279Z,8.9
2023-05-16T19:31:56.234Z,8.8
2023-05-16T19:37:02.415Z,8.9
2023-05-16T19:42:10.345Z,8.9
2023-05-16T19:47:18.303Z,8.9
2023-05-16T19:52:26.269Z,8.7
2023-05-16T19:57:34.208Z,8.7
2023-05-16T20:02:42.235Z,8.7
2023-05-16T20:07:50.109Z,8.7
2023-05-16T20:12:58.050Z,8.7
2023-05-16T20:18:06.117Z,8.7
2023-05-16T20:23:13.974Z,8.7
2023-05-16T20:28:21.917Z,8.7
2023-05-16T20:33:30.059Z,8.7
2023-05-16T20:38:37.843Z,8.7
2023-05-16T20:43:45.817Z,8.7
2023-05-16T20:48:53.750Z,8.7
2023-05-16T20:54:01.695Z,8.7
2023-05-16T20:59:09.661Z,8.6
2023-05-16T21:04:17.659Z,8.6
2023-05-16T21:09:25.569Z,8.6
2023-05-16T21:19:41.491Z,8.5
2023-05-16T21:24:49.427Z,8.5
2023-05-16T21:29:57.369Z,8.5
2023-05-16T21:35:05.354Z,8.5
2023-05-16T21:40:13.299Z,8.5
2023-05-16T21:45:21.256Z,8.5
2023-05-16T21:50:27.441Z,8.5
2023-05-16T21:55:35.386Z,8.5
2023-05-16T22:00:41.538Z,8.5
2023-05-16T22:05:49.532Z,8.5
2023-05-16T22:10:55.666Z,8.5
2023-05-16T22:16:05.146Z,8.5
2023-05-16T22:21:09.806Z,8.5
2023-05-16T22:26:17.746Z,8.5
2023-05-16T22:31:23.937Z,8.5
2023-05-16T22:36:30.129Z,8.5
2023-05-16T22:41:36.255Z,8.5
2023-05-16T22:46:42.431Z,8.5
2023-05-16T22:51:48.612Z,8.5
2023-05-16T22:56:56.563Z,8.5
2023-05-16T23:02:02.736Z,8.5
2023-05-16T23:07:10.681Z,8.5
2023-05-16T23:12:16.883Z,8.4
2023-05-16T23:17:24.849Z,8.4
2023-05-16T23:22:30.958Z,8.4
2023-05-16T23:32:45.153Z,8.4
2023-05-16T23:37:51.324Z,8.4
2023-05-16T23:42:57.439Z,8.4
2023-05-16T23:48:05.469Z,8.4
2023-05-16T23:53:11.565Z,8.3
2023-05-16T23:58:19.531Z,8.4
